sensor_id;sensor_type;location;lat;lon;timestamp;P1;durP1;ratioP1;P2;durP2;ratioP2
11548;SDS011;61444;59.472;18.306;2023-12-22T00:01:05;1.40;;;0.70;;
11548;SDS011;61444;59.472;18.306;2023-12-22T00:03:14;0.57;;;0.50;;
11548;SDS011;61444;59.472;18.306;2023-12-22T00:05:23;0.83;;;0.53;;
11548;SDS011;61444;59.472;18.306;2023-12-22T00:07:34;0.90;;;0.40;;
11548;SDS011;61444;59.472;18.306;2023-12-22T00:09:43;3.30;;;0.60;;
11548;SDS011;61444;59.472;18.306;2023-12-22T00:11:52;1.90;;;0.80;;
11548;SDS011;61444;59.472;18.306;2023-12-22T00:14:01;0.70;;;0.40;;
11548;SDS011;61444;59.472;18.306;2023-12-22T00:16:10;1.80;;;0.60;;
11548;SDS011;61444;59.472;18.306;2023-12-22T00:18:19;3.20;;;0.63;;
11548;SDS011;61444;59.472;18.306;2023-12-22T00:20:28;0.50;;;0.43;;
11548;SDS011;61444;59.472;18.306;2023-12-22T00:22:37;0.90;;;0.50;;
11548;SDS011;61444;59.472;18.306;2023-12-22T00:24:46;1.17;;;0.40;;
11548;SDS011;61444;59.472;18.306;2023-12-22T00:26:55;1.43;;;0.50;;
11548;SDS011;61444;59.472;18.306;2023-12-22T00:29:04;1.90;;;0.50;;
11548;SDS011;61444;59.472;18.306;2023-12-22T00:31:13;1.50;;;0.70;;
11548;SDS011;61444;59.472;18.306;2023-12-22T00:33:22;0.60;;;0.27;;
11548;SDS011;61444;59.472;18.306;2023-12-22T00:35:32;0.50;;;0.33;;
11548;SDS011;61444;59.472;18.306;2023-12-22T00:37:43;2.10;;;0.30;;
11548;SDS011;61444;59.472;18.306;2023-12-22T00:39:53;2.27;;;0.60;;
11548;SDS011;61444;59.472;18.306;2023-12-22T00:42:03;1.60;;;0.67;;
11548;SDS011;61444;59.472;18.306;2023-12-22T00:44:13;0.87;;;0.40;;
11548;SDS011;61444;59.472;18.306;2023-12-22T00:46:22;0.87;;;0.40;;
11548;SDS011;61444;59.472;18.306;2023-12-22T00:48:31;1.07;;;0.37;;
11548;SDS011;61444;59.472;18.306;2023-12-22T00:50:39;0.80;;;0.33;;
11548;SDS011;61444;59.472;18.306;2023-12-22T00:52:49;0.73;;;0.50;;
11548;SDS011;61444;59.472;18.306;2023-12-22T00:54:58;0.60;;;0.30;;
11548;SDS011;61444;59.472;18.306;2023-12-22T00:57:07;1.07;;;0.53;;
11548;SDS011;61444;59.472;18.306;2023-12-22T00:59:16;0.37;;;0.23;;
11548;SDS011;61444;59.472;18.306;2023-12-22T01:01:25;1.53;;;0.40;;
11548;SDS011;61444;59.472;18.306;2023-12-22T01:03:34;1.70;;;0.40;;
11548;SDS011;61444;59.472;18.306;2023-12-22T01:05:43;1.20;;;0.50;;
11548;SDS011;61444;59.472;18.306;2023-12-22T01:07:52;1.80;;;0.50;;
11548;SDS011;61444;59.472;18.306;2023-12-22T01:10:01;1.87;;;0.43;;
11548;SDS011;61444;59.472;18.306;2023-12-22T01:12:10;1.17;;;0.33;;
11548;SDS011;61444;59.472;18.306;2023-12-22T01:14:20;2.90;;;0.50;;
11548;SDS011;61444;59.472;18.306;2023-12-22T01:16:28;1.10;;;0.50;;
11548;SDS011;61444;59.472;18.306;2023-12-22T01:18:37;2.23;;;0.27;;
11548;SDS011;61444;59.472;18.306;2023-12-22T01:20:49;0.30;;;0.20;;
11548;SDS011;61444;59.472;18.306;2023-12-22T01:23:00;1.40;;;0.50;;
11548;SDS011;61444;59.472;18.306;2023-12-22T01:25:07;1.63;;;0.57;;
11548;SDS011;61444;59.472;18.306;2023-12-22T01:27:16;0.60;;;0.37;;
11548;SDS011;61444;59.472;18.306;2023-12-22T01:29:26;0.63;;;0.40;;
11548;SDS011;61444;59.472;18.306;2023-12-22T01:31:35;1.13;;;0.60;;
11548;SDS011;61444;59.472;18.306;2023-12-22T01:33:43;1.60;;;0.40;;
11548;SDS011;61444;59.472;18.306;2023-12-22T01:35:53;0.20;;;0.20;;
11548;SDS011;61444;59.472;18.306;2023-12-22T01:38:03;0.50;;;0.30;;
11548;SDS011;61444;59.472;18.306;2023-12-22T01:40:13;0.63;;;0.40;;
11548;SDS011;61444;59.472;18.306;2023-12-22T01:42:22;2.40;;;0.50;;
11548;SDS011;61444;59.472;18.306;2023-12-22T01:44:29;1.10;;;0.40;;
11548;SDS011;61444;59.472;18.306;2023-12-22T01:46:38;2.53;;;0.77;;
11548;SDS011;61444;59.472;18.306;2023-12-22T01:48:48;1.27;;;0.73;;
11548;SDS011;61444;59.472;18.306;2023-12-22T01:50:57;0.83;;;0.30;;
11548;SDS011;61444;59.472;18.306;2023-12-22T01:53:09;2.00;;;0.77;;
11548;SDS011;61444;59.472;18.306;2023-12-22T01:55:20;0.90;;;0.37;;
11548;SDS011;61444;59.472;18.306;2023-12-22T01:57:29;2.23;;;0.60;;
11548;SDS011;61444;59.472;18.306;2023-12-22T01:59:37;1.10;;;0.40;;
11548;SDS011;61444;59.472;18.306;2023-12-22T02:01:46;8.30;;;0.70;;
11548;SDS011;61444;59.472;18.306;2023-12-22T02:03:55;0.90;;;0.40;;
11548;SDS011;61444;59.472;18.306;2023-12-22T02:06:05;0.57;;;0.30;;
11548;SDS011;61444;59.472;18.306;2023-12-22T02:08:16;2.97;;;0.60;;
11548;SDS011;61444;59.472;18.306;2023-12-22T02:10:25;0.30;;;0.23;;
11548;SDS011;61444;59.472;18.306;2023-12-22T02:12:33;2.57;;;0.50;;
11548;SDS011;61444;59.472;18.306;2023-12-22T02:14:42;1.17;;;0.33;;
11548;SDS011;61444;59.472;18.306;2023-12-22T02:16:52;2.13;;;0.27;;
11548;SDS011;61444;59.472;18.306;2023-12-22T02:19:04;0.60;;;0.40;;
11548;SDS011;61444;59.472;18.306;2023-12-22T02:21:17;0.87;;;0.70;;
11548;SDS011;61444;59.472;18.306;2023-12-22T02:23:27;2.17;;;0.40;;
11548;SDS011;61444;59.472;18.306;2023-12-22T02:25:36;0.90;;;0.33;;
11548;SDS011;61444;59.472;18.306;2023-12-22T02:27:48;0.43;;;0.20;;
11548;SDS011;61444;59.472;18.306;2023-12-22T02:29:59;0.43;;;0.30;;
11548;SDS011;61444;59.472;18.306;2023-12-22T02:32:10;1.67;;;0.60;;
11548;SDS011;61444;59.472;18.306;2023-12-22T02:34:21;1.10;;;0.23;;
11548;SDS011;61444;59.472;18.306;2023-12-22T02:36:30;0.60;;;0.33;;
11548;SDS011;61444;59.472;18.306;2023-12-22T02:38:42;0.90;;;0.20;;
11548;SDS011;61444;59.472;18.306;2023-12-22T02:40:50;0.63;;;0.40;;
11548;SDS011;61444;59.472;18.306;2023-12-22T02:43:00;0.53;;;0.30;;
11548;SDS011;61444;59.472;18.306;2023-12-22T02:45:12;0.47;;;0.20;;
11548;SDS011;61444;59.472;18.306;2023-12-22T02:47:21;0.60;;;0.30;;
11548;SDS011;61444;59.472;18.306;2023-12-22T02:49:30;1.07;;;0.50;;
11548;SDS011;61444;59.472;18.306;2023-12-22T02:51:38;1.17;;;0.37;;
11548;SDS011;61444;59.472;18.306;2023-12-22T02:53:48;0.47;;;0.20;;
11548;SDS011;61444;59.472;18.306;2023-12-22T02:55:58;2.27;;;0.60;;
11548;SDS011;61444;59.472;18.306;2023-12-22T02:58:06;0.83;;;0.50;;
11548;SDS011;61444;59.472;18.306;2023-12-22T03:00:15;0.93;;;0.30;;
11548;SDS011;61444;59.472;18.306;2023-12-22T03:02:24;0.83;;;0.30;;
11548;SDS011;61444;59.472;18.306;2023-12-22T03:04:33;0.40;;;0.30;;
11548;SDS011;61444;59.472;18.306;2023-12-22T03:06:42;1.40;;;0.50;;
11548;SDS011;61444;59.472;18.306;2023-12-22T03:08:52;1.33;;;0.50;;
11548;SDS011;61444;59.472;18.306;2023-12-22T03:11:01;0.90;;;0.50;;
11548;SDS011;61444;59.472;18.306;2023-12-22T03:13:10;0.83;;;0.33;;
11548;SDS011;61444;59.472;18.306;2023-12-22T03:15:19;0.57;;;0.20;;
11548;SDS011;61444;59.472;18.306;2023-12-22T03:17:28;1.53;;;0.40;;
11548;SDS011;61444;59.472;18.306;2023-12-22T03:19:38;1.50;;;0.30;;
11548;SDS011;61444;59.472;18.306;2023-12-22T03:21:47;3.53;;;0.40;;
11548;SDS011;61444;59.472;18.306;2023-12-22T03:23:58;0.77;;;0.30;;
11548;SDS011;61444;59.472;18.306;2023-12-22T03:26:07;0.40;;;0.30;;
11548;SDS011;61444;59.472;18.306;2023-12-22T03:28:16;0.63;;;0.50;;
11548;SDS011;61444;59.472;18.306;2023-12-22T03:30:25;1.00;;;0.40;;
11548;SDS011;61444;59.472;18.306;2023-12-22T03:32:34;1.53;;;0.50;;
11548;SDS011;61444;59.472;18.306;2023-12-22T03:34:43;1.50;;;0.30;;
11548;SDS011;61444;59.472;18.306;2023-12-22T03:36:53;1.00;;;0.50;;
11548;SDS011;61444;59.472;18.306;2023-12-22T03:39:05;2.33;;;0.80;;
11548;SDS011;61444;59.472;18.306;2023-12-22T03:41:13;1.37;;;0.40;;
11548;SDS011;61444;59.472;18.306;2023-12-22T03:43:21;2.40;;;0.50;;
11548;SDS011;61444;59.472;18.306;2023-12-22T03:45:33;1.47;;;0.57;;
11548;SDS011;61444;59.472;18.306;2023-12-22T03:47:42;2.47;;;0.30;;
11548;SDS011;61444;59.472;18.306;2023-12-22T03:49:51;2.50;;;0.70;;
11548;SDS011;61444;59.472;18.306;2023-12-22T03:52:00;0.50;;;0.20;;
11548;SDS011;61444;59.472;18.306;2023-12-22T03:54:10;1.47;;;0.40;;
11548;SDS011;61444;59.472;18.306;2023-12-22T03:56:19;3.90;;;0.43;;
11548;SDS011;61444;59.472;18.306;2023-12-22T03:58:27;0.83;;;0.30;;
11548;SDS011;61444;59.472;18.306;2023-12-22T04:00:36;2.50;;;0.30;;
11548;SDS011;61444;59.472;18.306;2023-12-22T04:02:45;0.10;;;0.10;;
11548;SDS011;61444;59.472;18.306;2023-12-22T04:04:54;1.43;;;0.50;;
11548;SDS011;61444;59.472;18.306;2023-12-22T04:07:03;0.40;;;0.30;;
11548;SDS011;61444;59.472;18.306;2023-12-22T04:09:14;0.80;;;0.40;;
11548;SDS011;61444;59.472;18.306;2023-12-22T04:11:23;0.60;;;0.40;;
11548;SDS011;61444;59.472;18.306;2023-12-22T04:13:32;0.30;;;0.20;;
11548;SDS011;61444;59.472;18.306;2023-12-22T04:15:41;0.70;;;0.30;;
11548;SDS011;61444;59.472;18.306;2023-12-22T04:17:50;1.23;;;0.33;;
11548;SDS011;61444;59.472;18.306;2023-12-22T04:19:59;0.30;;;0.20;;
11548;SDS011;61444;59.472;18.306;2023-12-22T04:22:08;0.60;;;0.30;;
11548;SDS011;61444;59.472;18.306;2023-12-22T04:24:19;0.47;;;0.30;;
11548;SDS011;61444;59.472;18.306;2023-12-22T04:26:27;0.40;;;0.20;;
11548;SDS011;61444;59.472;18.306;2023-12-22T04:28:37;0.20;;;0.10;;
11548;SDS011;61444;59.472;18.306;2023-12-22T04:30:47;0.90;;;0.20;;
11548;SDS011;61444;59.472;18.306;2023-12-22T04:32:57;0.30;;;0.20;;
11548;SDS011;61444;59.472;18.306;2023-12-22T04:35:06;0.50;;;0.30;;
11548;SDS011;61444;59.472;18.306;2023-12-22T04:37:14;0.30;;;0.20;;
11548;SDS011;61444;59.472;18.306;2023-12-22T04:39:25;0.60;;;0.40;;
11548;SDS011;61444;59.472;18.306;2023-12-22T04:41:34;0.40;;;0.30;;
11548;SDS011;61444;59.472;18.306;2023-12-22T04:43:42;0.20;;;0.10;;
11548;SDS011;61444;59.472;18.306;2023-12-22T04:45:51;0.50;;;0.30;;
11548;SDS011;61444;59.472;18.306;2023-12-22T04:48:00;0.40;;;0.20;;
11548;SDS011;61444;59.472;18.306;2023-12-22T04:50:09;0.40;;;0.30;;
11548;SDS011;61444;59.472;18.306;2023-12-22T04:52:18;0.33;;;0.23;;
11548;SDS011;61444;59.472;18.306;2023-12-22T04:54:29;0.47;;;0.30;;
11548;SDS011;61444;59.472;18.306;2023-12-22T04:56:38;1.13;;;0.40;;
11548;SDS011;61444;59.472;18.306;2023-12-22T04:58:47;0.53;;;0.30;;
11548;SDS011;61444;59.472;18.306;2023-12-22T05:00:56;0.50;;;0.30;;
11548;SDS011;61444;59.472;18.306;2023-12-22T05:03:07;0.37;;;0.30;;
11548;SDS011;61444;59.472;18.306;2023-12-22T05:05:15;0.67;;;0.33;;
11548;SDS011;61444;59.472;18.306;2023-12-22T05:07:24;0.80;;;0.30;;
11548;SDS011;61444;59.472;18.306;2023-12-22T05:09:36;0.60;;;0.30;;
11548;SDS011;61444;59.472;18.306;2023-12-22T05:11:45;0.40;;;0.20;;
11548;SDS011;61444;59.472;18.306;2023-12-22T05:13:53;0.20;;;0.20;;
11548;SDS011;61444;59.472;18.306;2023-12-22T05:16:05;0.80;;;0.50;;
11548;SDS011;61444;59.472;18.306;2023-12-22T05:18:14;0.63;;;0.50;;
11548;SDS011;61444;59.472;18.306;2023-12-22T05:20:24;0.40;;;0.30;;
11548;SDS011;61444;59.472;18.306;2023-12-22T05:22:33;0.50;;;0.30;;
11548;SDS011;61444;59.472;18.306;2023-12-22T05:24:44;0.90;;;0.33;;
11548;SDS011;61444;59.472;18.306;2023-12-22T05:26:56;0.40;;;0.30;;
11548;SDS011;61444;59.472;18.306;2023-12-22T05:29:05;1.03;;;0.50;;
11548;SDS011;61444;59.472;18.306;2023-12-22T05:31:16;0.70;;;0.50;;
11548;SDS011;61444;59.472;18.306;2023-12-22T05:33:26;0.80;;;0.50;;
11548;SDS011;61444;59.472;18.306;2023-12-22T05:35:36;0.70;;;0.40;;
11548;SDS011;61444;59.472;18.306;2023-12-22T05:37:46;1.20;;;0.40;;
11548;SDS011;61444;59.472;18.306;2023-12-22T05:39:58;1.73;;;1.03;;
11548;SDS011;61444;59.472;18.306;2023-12-22T05:42:07;0.60;;;0.50;;
11548;SDS011;61444;59.472;18.306;2023-12-22T05:44:15;1.83;;;0.50;;
11548;SDS011;61444;59.472;18.306;2023-12-22T05:46:25;1.23;;;0.40;;
11548;SDS011;61444;59.472;18.306;2023-12-22T05:48:33;0.63;;;0.40;;
11548;SDS011;61444;59.472;18.306;2023-12-22T05:50:43;1.10;;;0.50;;
11548;SDS011;61444;59.472;18.306;2023-12-22T05:52:52;0.90;;;0.53;;
11548;SDS011;61444;59.472;18.306;2023-12-22T05:55:02;1.70;;;0.70;;
11548;SDS011;61444;59.472;18.306;2023-12-22T05:57:11;0.87;;;0.50;;
11548;SDS011;61444;59.472;18.306;2023-12-22T05:59:22;1.30;;;0.57;;
11548;SDS011;61444;59.472;18.306;2023-12-22T06:01:33;1.20;;;0.70;;
11548;SDS011;61444;59.472;18.306;2023-12-22T06:03:43;0.40;;;0.30;;
11548;SDS011;61444;59.472;18.306;2023-12-22T06:05:53;1.60;;;0.80;;
11548;SDS011;61444;59.472;18.306;2023-12-22T06:08:03;0.90;;;0.60;;
11548;SDS011;61444;59.472;18.306;2023-12-22T06:10:14;1.00;;;0.50;;
11548;SDS011;61444;59.472;18.306;2023-12-22T06:12:24;1.07;;;0.77;;
11548;SDS011;61444;59.472;18.306;2023-12-22T06:14:34;1.50;;;0.70;;
11548;SDS011;61444;59.472;18.306;2023-12-22T06:16:43;2.83;;;0.80;;
11548;SDS011;61444;59.472;18.306;2023-12-22T06:18:52;0.97;;;0.70;;
11548;SDS011;61444;59.472;18.306;2023-12-22T06:21:01;1.33;;;0.77;;
11548;SDS011;61444;59.472;18.306;2023-12-22T06:23:10;0.97;;;0.47;;
11548;SDS011;61444;59.472;18.306;2023-12-22T06:25:20;1.20;;;0.77;;
11548;SDS011;61444;59.472;18.306;2023-12-22T06:27:29;1.80;;;0.67;;
11548;SDS011;61444;59.472;18.306;2023-12-22T06:29:39;1.63;;;0.80;;
11548;SDS011;61444;59.472;18.306;2023-12-22T06:31:48;1.93;;;1.00;;
11548;SDS011;61444;59.472;18.306;2023-12-22T06:33:58;1.53;;;0.83;;
11548;SDS011;61444;59.472;18.306;2023-12-22T06:36:17;1.50;;;0.80;;
11548;SDS011;61444;59.472;18.306;2023-12-22T06:38:26;3.13;;;0.80;;
11548;SDS011;61444;59.472;18.306;2023-12-22T06:40:37;1.60;;;0.70;;
11548;SDS011;61444;59.472;18.306;2023-12-22T06:42:46;2.23;;;0.90;;
11548;SDS011;61444;59.472;18.306;2023-12-22T06:44:55;1.60;;;0.87;;
11548;SDS011;61444;59.472;18.306;2023-12-22T06:47:04;2.17;;;0.80;;
11548;SDS011;61444;59.472;18.306;2023-12-22T06:49:13;1.23;;;0.73;;
11548;SDS011;61444;59.472;18.306;2023-12-22T06:51:23;1.00;;;0.70;;
11548;SDS011;61444;59.472;18.306;2023-12-22T06:53:32;1.27;;;0.73;;
11548;SDS011;61444;59.472;18.306;2023-12-22T06:55:45;1.53;;;0.90;;
11548;SDS011;61444;59.472;18.306;2023-12-22T06:57:55;1.10;;;0.60;;
11548;SDS011;61444;59.472;18.306;2023-12-22T07:00:06;2.00;;;0.87;;
11548;SDS011;61444;59.472;18.306;2023-12-22T07:02:20;3.13;;;0.80;;
11548;SDS011;61444;59.472;18.306;2023-12-22T07:07:13;1.60;;;0.83;;
11548;SDS011;61444;59.472;18.306;2023-12-22T07:09:30;1.27;;;0.70;;
11548;SDS011;61444;59.472;18.306;2023-12-22T07:11:40;1.37;;;0.50;;
11548;SDS011;61444;59.472;18.306;2023-12-22T07:13:49;1.70;;;0.73;;
11548;SDS011;61444;59.472;18.306;2023-12-22T07:15:57;1.43;;;1.00;;
11548;SDS011;61444;59.472;18.306;2023-12-22T07:18:08;2.80;;;1.00;;
11548;SDS011;61444;59.472;18.306;2023-12-22T07:20:17;1.60;;;0.90;;
11548;SDS011;61444;59.472;18.306;2023-12-22T07:22:25;1.40;;;0.80;;
11548;SDS011;61444;59.472;18.306;2023-12-22T07:24:33;1.53;;;0.67;;
11548;SDS011;61444;59.472;18.306;2023-12-22T07:26:44;2.50;;;0.90;;
11548;SDS011;61444;59.472;18.306;2023-12-22T07:28:53;1.40;;;0.77;;
11548;SDS011;61444;59.472;18.306;2023-12-22T07:31:02;0.70;;;0.40;;
11548;SDS011;61444;59.472;18.306;2023-12-22T07:33:11;2.33;;;0.90;;
11548;SDS011;61444;59.472;18.306;2023-12-22T07:35:19;3.27;;;1.10;;
11548;SDS011;61444;59.472;18.306;2023-12-22T07:37:29;2.60;;;1.10;;
11548;SDS011;61444;59.472;18.306;2023-12-22T07:39:38;1.63;;;1.10;;
11548;SDS011;61444;59.472;18.306;2023-12-22T07:41:51;1.63;;;0.90;;
11548;SDS011;61444;59.472;18.306;2023-12-22T07:44:00;1.93;;;1.00;;
11548;SDS011;61444;59.472;18.306;2023-12-22T07:46:16;1.13;;;0.70;;
11548;SDS011;61444;59.472;18.306;2023-12-22T07:48:25;1.93;;;0.93;;
11548;SDS011;61444;59.472;18.306;2023-12-22T07:50:38;2.27;;;1.27;;
11548;SDS011;61444;59.472;18.306;2023-12-22T07:52:49;2.07;;;1.10;;
11548;SDS011;61444;59.472;18.306;2023-12-22T07:55:00;2.40;;;1.20;;
11548;SDS011;61444;59.472;18.306;2023-12-22T07:57:10;0.97;;;0.90;;
11548;SDS011;61444;59.472;18.306;2023-12-22T07:59:20;2.30;;;1.30;;
11548;SDS011;61444;59.472;18.306;2023-12-22T08:01:37;2.33;;;1.37;;
11548;SDS011;61444;59.472;18.306;2023-12-22T08:03:46;3.50;;;1.20;;
11548;SDS011;61444;59.472;18.306;2023-12-22T08:05:55;2.27;;;1.33;;
11548;SDS011;61444;59.472;18.306;2023-12-22T08:08:04;2.83;;;1.33;;
11548;SDS011;61444;59.472;18.306;2023-12-22T08:10:13;2.97;;;1.40;;
11548;SDS011;61444;59.472;18.306;2023-12-22T08:12:25;4.70;;;1.20;;
11548;SDS011;61444;59.472;18.306;2023-12-22T08:14:34;2.97;;;1.37;;
11548;SDS011;61444;59.472;18.306;2023-12-22T08:16:48;5.77;;;2.40;;
11548;SDS011;61444;59.472;18.306;2023-12-22T08:18:56;1.87;;;1.10;;
11548;SDS011;61444;59.472;18.306;2023-12-22T08:21:05;2.63;;;1.63;;
11548;SDS011;61444;59.472;18.306;2023-12-22T08:23:30;2.30;;;1.20;;
11548;SDS011;61444;59.472;18.306;2023-12-22T08:25:48;2.30;;;1.50;;
11548;SDS011;61444;59.472;18.306;2023-12-22T08:28:00;2.43;;;1.33;;
11548;SDS011;61444;59.472;18.306;2023-12-22T08:30:10;2.57;;;0.97;;
11548;SDS011;61444;59.472;18.306;2023-12-22T08:32:22;3.13;;;1.67;;
11548;SDS011;61444;59.472;18.306;2023-12-22T08:34:31;2.90;;;1.40;;
11548;SDS011;61444;59.472;18.306;2023-12-22T08:36:41;3.70;;;1.37;;
11548;SDS011;61444;59.472;18.306;2023-12-22T08:38:51;2.20;;;1.27;;
11548;SDS011;61444;59.472;18.306;2023-12-22T08:41:01;2.10;;;0.83;;
11548;SDS011;61444;59.472;18.306;2023-12-22T08:43:16;2.40;;;1.33;;
11548;SDS011;61444;59.472;18.306;2023-12-22T08:45:25;1.90;;;1.03;;
11548;SDS011;61444;59.472;18.306;2023-12-22T08:47:36;1.00;;;0.70;;
11548;SDS011;61444;59.472;18.306;2023-12-22T08:49:45;4.17;;;1.70;;
11548;SDS011;61444;59.472;18.306;2023-12-22T08:51:54;2.83;;;1.40;;
11548;SDS011;61444;59.472;18.306;2023-12-22T08:54:03;1.93;;;1.23;;
11548;SDS011;61444;59.472;18.306;2023-12-22T08:56:12;4.27;;;1.60;;
11548;SDS011;61444;59.472;18.306;2023-12-22T08:58:26;2.50;;;1.43;;
11548;SDS011;61444;59.472;18.306;2023-12-22T09:00:35;3.40;;;1.73;;
11548;SDS011;61444;59.472;18.306;2023-12-22T09:02:45;2.67;;;1.50;;
11548;SDS011;61444;59.472;18.306;2023-12-22T09:04:55;7.90;;;6.27;;
11548;SDS011;61444;59.472;18.306;2023-12-22T09:07:05;5.07;;;2.40;;
11548;SDS011;61444;59.472;18.306;2023-12-22T09:09:15;3.07;;;1.67;;
11548;SDS011;61444;59.472;18.306;2023-12-22T09:11:25;3.40;;;1.77;;
11548;SDS011;61444;59.472;18.306;2023-12-22T09:13:37;3.93;;;2.03;;
11548;SDS011;61444;59.472;18.306;2023-12-22T09:15:45;6.60;;;3.90;;
11548;SDS011;61444;59.472;18.306;2023-12-22T09:17:55;3.57;;;2.13;;
11548;SDS011;61444;59.472;18.306;2023-12-22T09:20:06;5.97;;;4.47;;
11548;SDS011;61444;59.472;18.306;2023-12-22T09:22:15;3.33;;;1.57;;
11548;SDS011;61444;59.472;18.306;2023-12-22T09:24:24;3.30;;;1.90;;
11548;SDS011;61444;59.472;18.306;2023-12-22T09:26:34;3.23;;;2.00;;
11548;SDS011;61444;59.472;18.306;2023-12-22T09:28:48;4.90;;;1.90;;
11548;SDS011;61444;59.472;18.306;2023-12-22T09:30:58;3.60;;;1.97;;
11548;SDS011;61444;59.472;18.306;2023-12-22T09:33:08;3.77;;;2.27;;
11548;SDS011;61444;59.472;18.306;2023-12-22T09:35:18;3.47;;;1.97;;
11548;SDS011;61444;59.472;18.306;2023-12-22T09:37:28;4.60;;;3.40;;
11548;SDS011;61444;59.472;18.306;2023-12-22T09:39:37;3.30;;;1.57;;
11548;SDS011;61444;59.472;18.306;2023-12-22T09:41:47;3.90;;;2.33;;
11548;SDS011;61444;59.472;18.306;2023-12-22T09:43:59;4.10;;;2.87;;
11548;SDS011;61444;59.472;18.306;2023-12-22T09:46:10;2.43;;;1.43;;
11548;SDS011;61444;59.472;18.306;2023-12-22T09:48:21;3.13;;;1.67;;
11548;SDS011;61444;59.472;18.306;2023-12-22T09:50:34;4.73;;;1.70;;
11548;SDS011;61444;59.472;18.306;2023-12-22T09:52:44;3.37;;;1.50;;
11548;SDS011;61444;59.472;18.306;2023-12-22T09:54:53;3.93;;;2.57;;
11548;SDS011;61444;59.472;18.306;2023-12-22T09:57:06;3.70;;;2.60;;
11548;SDS011;61444;59.472;18.306;2023-12-22T09:59:30;3.30;;;2.00;;
11548;SDS011;61444;59.472;18.306;2023-12-22T10:01:42;3.97;;;1.73;;
11548;SDS011;61444;59.472;18.306;2023-12-22T10:03:59;4.10;;;1.67;;
11548;SDS011;61444;59.472;18.306;2023-12-22T10:06:09;4.77;;;1.80;;
11548;SDS011;61444;59.472;18.306;2023-12-22T10:08:18;10.23;;;6.47;;
11548;SDS011;61444;59.472;18.306;2023-12-22T10:10:30;14.73;;;9.63;;
11548;SDS011;61444;59.472;18.306;2023-12-22T10:12:41;5.23;;;2.70;;
11548;SDS011;61444;59.472;18.306;2023-12-22T10:15:00;4.00;;;2.10;;
11548;SDS011;61444;59.472;18.306;2023-12-22T10:17:11;4.70;;;2.23;;
11548;SDS011;61444;59.472;18.306;2023-12-22T10:19:20;6.53;;;3.50;;
11548;SDS011;61444;59.472;18.306;2023-12-22T10:21:35;5.53;;;2.97;;
11548;SDS011;61444;59.472;18.306;2023-12-22T10:23:44;3.63;;;2.07;;
11548;SDS011;61444;59.472;18.306;2023-12-22T10:25:54;4.77;;;2.27;;
11548;SDS011;61444;59.472;18.306;2023-12-22T10:28:09;3.30;;;1.67;;
11548;SDS011;61444;59.472;18.306;2023-12-22T10:30:23;3.27;;;1.93;;
11548;SDS011;61444;59.472;18.306;2023-12-22T10:32:39;3.53;;;1.97;;
11548;SDS011;61444;59.472;18.306;2023-12-22T10:34:51;4.17;;;2.07;;
11548;SDS011;61444;59.472;18.306;2023-12-22T10:37:01;4.33;;;2.00;;
11548;SDS011;61444;59.472;18.306;2023-12-22T10:39:11;4.30;;;1.73;;
11548;SDS011;61444;59.472;18.306;2023-12-22T10:41:21;3.80;;;1.93;;
11548;SDS011;61444;59.472;18.306;2023-12-22T10:43:30;4.07;;;2.07;;
11548;SDS011;61444;59.472;18.306;2023-12-22T10:45:42;2.80;;;2.10;;
11548;SDS011;61444;59.472;18.306;2023-12-22T10:48:00;5.73;;;2.40;;
11548;SDS011;61444;59.472;18.306;2023-12-22T10:50:12;4.70;;;1.73;;
11548;SDS011;61444;59.472;18.306;2023-12-22T10:52:22;4.70;;;2.13;;
11548;SDS011;61444;59.472;18.306;2023-12-22T10:54:33;4.43;;;2.63;;
11548;SDS011;61444;59.472;18.306;2023-12-22T10:56:46;4.70;;;2.60;;
11548;SDS011;61444;59.472;18.306;2023-12-22T10:58:55;4.63;;;2.30;;
11548;SDS011;61444;59.472;18.306;2023-12-22T11:01:10;5.43;;;2.60;;
11548;SDS011;61444;59.472;18.306;2023-12-22T11:03:21;5.03;;;2.33;;
11548;SDS011;61444;59.472;18.306;2023-12-22T11:05:33;5.57;;;2.60;;
11548;SDS011;61444;59.472;18.306;2023-12-22T11:07:47;5.07;;;2.40;;
11548;SDS011;61444;59.472;18.306;2023-12-22T11:10:02;3.30;;;1.83;;
11548;SDS011;61444;59.472;18.306;2023-12-22T11:12:15;4.73;;;2.10;;
11548;SDS011;61444;59.472;18.306;2023-12-22T11:14:25;4.30;;;2.10;;
11548;SDS011;61444;59.472;18.306;2023-12-22T11:16:39;4.90;;;2.20;;
11548;SDS011;61444;59.472;18.306;2023-12-22T11:18:54;5.60;;;3.20;;
11548;SDS011;61444;59.472;18.306;2023-12-22T11:21:04;4.90;;;2.60;;
11548;SDS011;61444;59.472;18.306;2023-12-22T11:23:16;5.97;;;2.30;;
11548;SDS011;61444;59.472;18.306;2023-12-22T11:25:26;3.40;;;1.63;;
11548;SDS011;61444;59.472;18.306;2023-12-22T11:27:39;6.87;;;2.70;;
11548;SDS011;61444;59.472;18.306;2023-12-22T11:29:51;4.50;;;2.40;;
11548;SDS011;61444;59.472;18.306;2023-12-22T11:32:03;4.77;;;2.77;;
11548;SDS011;61444;59.472;18.306;2023-12-22T11:34:14;4.90;;;2.60;;
11548;SDS011;61444;59.472;18.306;2023-12-22T11:36:28;6.10;;;2.73;;
11548;SDS011;61444;59.472;18.306;2023-12-22T11:38:40;6.73;;;2.70;;
11548;SDS011;61444;59.472;18.306;2023-12-22T11:40:50;3.00;;;2.10;;
11548;SDS011;61444;59.472;18.306;2023-12-22T11:43:12;4.50;;;2.30;;
11548;SDS011;61444;59.472;18.306;2023-12-22T11:45:24;4.50;;;2.20;;
11548;SDS011;61444;59.472;18.306;2023-12-22T11:47:38;4.83;;;2.43;;
11548;SDS011;61444;59.472;18.306;2023-12-22T11:49:49;5.80;;;2.70;;
11548;SDS011;61444;59.472;18.306;2023-12-22T11:52:09;5.80;;;2.40;;
11548;SDS011;61444;59.472;18.306;2023-12-22T11:56:51;4.40;;;2.03;;
11548;SDS011;61444;59.472;18.306;2023-12-22T11:59:10;3.70;;;1.87;;
11548;SDS011;61444;59.472;18.306;2023-12-22T12:01:23;4.43;;;1.87;;
11548;SDS011;61444;59.472;18.306;2023-12-22T12:03:47;4.73;;;2.50;;
11548;SDS011;61444;59.472;18.306;2023-12-22T12:06:15;3.63;;;1.80;;
11548;SDS011;61444;59.472;18.306;2023-12-22T12:08:29;3.47;;;2.10;;
11548;SDS011;61444;59.472;18.306;2023-12-22T12:10:52;3.90;;;1.93;;
11548;SDS011;61444;59.472;18.306;2023-12-22T12:13:06;3.70;;;2.13;;
11548;SDS011;61444;59.472;18.306;2023-12-22T12:15:18;4.10;;;2.00;;
11548;SDS011;61444;59.472;18.306;2023-12-22T12:17:31;5.60;;;2.10;;
11548;SDS011;61444;59.472;18.306;2023-12-22T12:19:43;4.43;;;2.03;;
11548;SDS011;61444;59.472;18.306;2023-12-22T12:21:56;4.07;;;1.80;;
11548;SDS011;61444;59.472;18.306;2023-12-22T12:24:07;3.43;;;1.87;;
11548;SDS011;61444;59.472;18.306;2023-12-22T12:26:23;5.57;;;2.50;;
11548;SDS011;61444;59.472;18.306;2023-12-22T12:28:35;4.80;;;2.00;;
11548;SDS011;61444;59.472;18.306;2023-12-22T12:30:46;2.23;;;1.10;;
11548;SDS011;61444;59.472;18.306;2023-12-22T12:32:55;4.13;;;1.77;;
11548;SDS011;61444;59.472;18.306;2023-12-22T12:35:17;3.47;;;1.80;;
11548;SDS011;61444;59.472;18.306;2023-12-22T12:37:31;4.13;;;2.30;;
11548;SDS011;61444;59.472;18.306;2023-12-22T12:39:48;3.70;;;2.30;;
11548;SDS011;61444;59.472;18.306;2023-12-22T12:42:03;5.50;;;2.63;;
11548;SDS011;61444;59.472;18.306;2023-12-22T12:44:16;4.23;;;2.00;;
11548;SDS011;61444;59.472;18.306;2023-12-22T12:46:31;4.33;;;2.30;;
11548;SDS011;61444;59.472;18.306;2023-12-22T12:48:43;4.40;;;2.30;;
11548;SDS011;61444;59.472;18.306;2023-12-22T12:50:59;4.67;;;2.10;;
11548;SDS011;61444;59.472;18.306;2023-12-22T12:53:10;4.30;;;2.20;;
11548;SDS011;61444;59.472;18.306;2023-12-22T12:55:24;4.47;;;1.60;;
11548;SDS011;61444;59.472;18.306;2023-12-22T12:57:35;4.87;;;2.33;;
11548;SDS011;61444;59.472;18.306;2023-12-22T12:59:45;3.27;;;1.80;;